Time;durP1;ratioP1;P1;durP2;ratioP2;P2;SDS_P1;SDS_P2;PMS_P1;PMS_P2;Temp;Humidity;BMP_temperature;BMP_pressure;BME280_temperature;BME280_humidity;BME280_pressure;Samples;Min_cycle;Max_cycle;Signal;HPM_P1;HPM_P2
2023/03/26 00:00:59;;;;;;;22.90;5.90;;;9.90;99.90;;;;;;5055855;28;20784;-57
2023/03/26 00:03:28;;;;;;;17.87;4.23;;;9.90;99.90;;;;;;5055831;28;20478;-57
2023/03/26 00:06:03;;;;;;;18.43;4.07;;;9.90;99.90;;;;;;5055634;28;20595;-57
2023/03/26 00:08:29;;;;;;;22.20;5.20;;;9.80;99.90;;;;;;5055871;28;20524;-57
2023/03/26 00:10:56;;;;;;;21.53;6.43;;;9.90;99.90;;;;;;5055645;28;20458;-57
2023/03/26 00:13:23;;;;;;;14.30;3.73;;;10.00;99.90;;;;;;5055621;28;20469;-57
2023/03/26 00:15:49;;;;;;;23.70;4.47;;;10.00;99.90;;;;;;5055477;28;20835;-57
2023/03/26 00:18:18;;;;;;;15.27;3.90;;;10.00;99.90;;;;;;5055487;28;20449;-56
2023/03/26 00:20:47;;;;;;;18.63;5.07;;;10.10;99.90;;;;;;5055114;28;20987;-56
2023/03/26 00:23:14;;;;;;;15.33;3.53;;;10.00;99.90;;;;;;5055335;28;20481;-57
2023/03/26 00:25:42;;;;;;;17.93;4.47;;;10.00;99.90;;;;;;5054823;28;20449;-57
2023/03/26 00:28:09;;;;;;;13.83;3.30;;;10.00;99.90;;;;;;5055225;28;20457;-57
2023/03/26 00:30:36;;;;;;;18.17;4.00;;;10.00;99.90;;;;;;5055287;28;20528;-56
2023/03/26 00:33:03;;;;;;;20.53;4.00;;;10.00;99.90;;;;;;5055111;28;20476;-57
2023/03/26 00:35:29;;;;;;;24.20;3.80;;;9.90;99.90;;;;;;5054891;28;20485;-57
2023/03/26 00:37:58;;;;;;;20.30;4.10;;;9.90;99.90;;;;;;5055005;28;20477;-57
2023/03/26 00:40:25;;;;;;;25.80;6.70;;;9.80;99.90;;;;;;5055191;28;20458;-57
2023/03/26 00:42:51;;;;;;;17.67;3.93;;;9.80;99.90;;;;;;5054933;28;20499;-57
2023/03/26 00:45:20;;;;;;;21.63;5.90;;;9.80;99.90;;;;;;5054946;28;20508;-57
2023/03/26 00:47:47;;;;;;;21.17;4.37;;;9.80;99.90;;;;;;5054922;28;20451;-57
2023/03/26 00:50:15;;;;;;;15.30;3.77;;;9.80;99.90;;;;;;5054599;28;20821;-57
2023/03/26 00:52:42;;;;;;;17.07;4.67;;;9.90;99.90;;;;;;5054712;28;20509;-57
2023/03/26 00:55:11;;;;;;;17.60;3.83;;;9.90;99.90;;;;;;5054683;28;20513;-57
2023/03/26 00:57:39;;;;;;;19.30;3.53;;;10.00;99.90;;;;;;5054745;28;20449;-57
2023/03/26 01:00:09;;;;;;;22.93;4.60;;;10.00;99.90;;;;;;5054630;28;20446;-57
2023/03/26 01:02:36;;;;;;;17.57;4.73;;;10.00;99.90;;;;;;5054644;28;20466;-57
2023/03/26 01:05:42;;;;;;;16.23;3.87;;;10.00;99.90;;;;;;5054428;28;20457;-57
2023/03/26 01:08:19;;;;;;;20.47;4.83;;;10.10;99.90;;;;;;5054545;28;20453;-57
2023/03/26 01:10:49;;;;;;;21.60;3.90;;;10.10;99.90;;;;;;5054563;28;20434;-57
2023/03/26 01:13:17;;;;;;;21.43;3.90;;;10.10;99.90;;;;;;5054440;28;20556;-57
2023/03/26 01:15:48;;;;;;;19.67;4.40;;;10.10;99.90;;;;;;5054230;28;20535;-57
2023/03/26 01:18:15;;;;;;;22.73;4.17;;;10.10;99.90;;;;;;5054371;28;20848;-57
2023/03/26 01:20:45;;;;;;;19.07;3.77;;;10.10;99.90;;;;;;5054262;28;20457;-57
2023/03/26 01:23:16;;;;;;;14.70;3.30;;;10.10;99.90;;;;;;5053417;28;20473;-57
2023/03/26 01:25:50;;;;;;;10.47;3.80;;;10.10;99.90;;;;;;5054304;28;20427;-57
2023/03/26 01:28:19;;;;;;;14.73;2.97;;;10.10;99.90;;;;;;5053821;28;20933;-57
2023/03/26 01:30:52;;;;;;;14.67;3.70;;;10.10;99.90;;;;;;5054084;28;20442;-57
2023/03/26 01:33:28;;;;;;;20.23;4.33;;;10.10;99.90;;;;;;5054175;28;20828;-56
2023/03/26 01:36:00;;;;;;;22.40;4.10;;;10.20;99.90;;;;;;5053996;28;20539;-56
2023/03/26 01:38:34;;;;;;;26.63;3.83;;;10.20;99.90;;;;;;5053927;28;20457;-56
2023/03/26 01:41:08;;;;;;;18.73;4.97;;;10.10;99.90;;;;;;5053918;28;20425;-56
2023/03/26 01:43:41;;;;;;;13.87;4.80;;;10.10;99.90;;;;;;5053890;28;20465;-57
2023/03/26 01:46:10;;;;;;;13.13;3.40;;;10.20;99.90;;;;;;5053609;28;20827;-56
2023/03/26 01:48:40;;;;;;;28.10;4.17;;;10.10;99.90;;;;;;5053945;28;20456;-56
2023/03/26 01:51:07;;;;;;;24.10;4.60;;;10.10;99.90;;;;;;5053757;28;20544;-57
2023/03/26 01:53:37;;;;;;;20.03;4.43;;;10.10;99.90;;;;;;5053673;28;20468;-56
2023/03/26 01:56:16;;;;;;;13.70;3.67;;;10.10;99.90;;;;;;5054496;28;20492;-56
2023/03/26 01:58:58;;;;;;;15.73;3.27;;;10.10;99.90;;;;;;5053435;28;20895;-57
2023/03/26 02:01:30;;;;;;;16.10;2.97;;;10.10;99.90;;;;;;5053614;28;20438;-57
2023/03/26 02:04:00;;;;;;;21.07;3.80;;;10.00;99.90;;;;;;5053415;28;20465;-57
2023/03/26 02:06:36;;;;;;;20.57;4.37;;;10.00;99.90;;;;;;5053544;28;20437;-57
2023/03/26 02:09:07;;;;;;;16.73;4.40;;;10.00;99.90;;;;;;5053248;28;20441;-57
2023/03/26 02:11:37;;;;;;;26.47;4.80;;;10.00;99.90;;;;;;5053665;28;20429;-57
2023/03/26 02:14:04;;;;;;;13.90;4.27;;;10.00;99.90;;;;;;5053121;28;20874;-57
2023/03/26 02:16:31;;;;;;;16.80;3.70;;;10.00;99.90;;;;;;5053305;28;20568;-57
2023/03/26 02:18:59;;;;;;;16.53;3.80;;;10.00;99.90;;;;;;5053470;28;20449;-57
2023/03/26 02:21:27;;;;;;;9.10;2.70;;;10.00;99.90;;;;;;5053410;28;20503;-57
2023/03/26 02:24:01;;;;;;;20.53;4.07;;;10.00;99.90;;;;;;5053310;28;20847;-57
2023/03/26 02:26:29;;;;;;;12.03;3.67;;;10.00;99.90;;;;;;5053323;28;20430;-57
2023/03/26 02:28:57;;;;;;;14.47;3.90;;;10.00;99.90;;;;;;5053255;28;20477;-57
2023/03/26 02:31:25;;;;;;;19.33;4.73;;;10.00;99.90;;;;;;5053051;28;20446;-57
2023/03/26 02:33:51;;;;;;;11.90;3.00;;;10.00;99.90;;;;;;5053483;28;20524;-57
2023/03/26 02:36:23;;;;;;;19.13;4.60;;;10.10;99.90;;;;;;5057271;28;20484;-57
2023/03/26 02:38:50;;;;;;;21.53;3.57;;;10.10;99.90;;;;;;5057152;28;20465;-57
2023/03/26 02:41:17;;;;;;;14.13;2.93;;;10.10;99.90;;;;;;5057469;28;20441;-59
2023/03/26 02:43:44;;;;;;;14.80;3.47;;;10.10;99.90;;;;;;5057211;28;20518;-57
2023/03/26 02:46:12;;;;;;;16.07;3.87;;;10.10;99.90;;;;;;5056917;28;20944;-57
2023/03/26 02:48:40;;;;;;;13.07;3.47;;;10.10;99.90;;;;;;5057153;28;20457;-57
2023/03/26 02:51:07;;;;;;;10.13;3.17;;;10.10;99.90;;;;;;5056748;28;20818;-57
2023/03/26 02:53:36;;;;;;;19.07;3.37;;;10.10;99.90;;;;;;5056934;28;20481;-57
2023/03/26 02:56:03;;;;;;;17.43;3.83;;;10.20;99.90;;;;;;5057612;28;20579;-57
2023/03/26 02:58:29;;;;;;;11.83;3.00;;;10.10;99.90;;;;;;5057328;28;20476;-57
2023/03/26 03:00:56;;;;;;;16.53;4.00;;;10.10;99.90;;;;;;5056904;28;20521;-57
2023/03/26 03:03:26;;;;;;;13.37;4.20;;;10.10;99.90;;;;;;5056957;28;20821;-57
2023/03/26 03:05:54;;;;;;;14.90;3.27;;;10.10;99.90;;;;;;5057177;28;20449;-57
2023/03/26 03:08:22;;;;;;;16.60;3.00;;;10.00;99.90;;;;;;5056924;28;20452;-57
2023/03/26 03:10:56;;;;;;;8.40;2.77;;;10.00;99.90;;;;;;5056847;28;20449;-57
2023/03/26 03:13:23;;;;;;;13.40;3.23;;;10.10;99.90;;;;;;5056704;28;20484;-57
2023/03/26 03:15:50;;;;;;;12.67;3.10;;;10.10;99.90;;;;;;5056317;28;21002;-57
2023/03/26 03:18:16;;;;;;;10.00;3.30;;;10.10;99.90;;;;;;5056641;28;20807;-57
2023/03/26 03:20:44;;;;;;;12.60;3.10;;;10.10;99.90;;;;;;5056251;28;20962;-57
2023/03/26 03:23:11;;;;;;;16.03;2.90;;;10.10;99.90;;;;;;5056233;28;20474;-57
2023/03/26 03:25:39;;;;;;;14.80;2.97;;;10.10;99.90;;;;;;5056654;28;20445;-57
2023/03/26 03:28:07;;;;;;;14.67;2.90;;;10.20;99.90;;;;;;5056514;28;20873;-57
2023/03/26 03:30:34;;;;;;;14.03;3.97;;;10.20;99.90;;;;;;5056046;28;20540;-57
2023/03/26 03:33:01;;;;;;;12.77;3.70;;;10.20;99.90;;;;;;5056324;28;20480;-57
2023/03/26 03:35:28;;;;;;;17.63;2.57;;;10.10;99.90;;;;;;5055907;28;20920;-57
2023/03/26 03:37:56;;;;;;;20.07;3.07;;;10.10;99.90;;;;;;5056227;28;20467;-57
2023/03/26 03:40:23;;;;;;;10.97;3.00;;;10.20;99.90;;;;;;5056340;28;20487;-57
2023/03/26 03:42:50;;;;;;;11.37;2.80;;;10.20;99.90;;;;;;5056055;28;20477;-57
2023/03/26 03:45:17;;;;;;;12.00;2.57;;;10.20;99.90;;;;;;5055661;28;20453;-57
2023/03/26 03:47:44;;;;;;;11.10;3.20;;;10.20;99.90;;;;;;5055876;28;21005;-57
2023/03/26 03:50:11;;;;;;;9.77;3.13;;;10.20;99.90;;;;;;5056075;28;20950;-57
2023/03/26 03:52:38;;;;;;;20.63;2.70;;;10.20;99.90;;;;;;5055842;28;20463;-57
2023/03/26 03:55:06;;;;;;;9.00;2.57;;;10.20;99.90;;;;;;5055645;28;20446;-56
2023/03/26 03:57:33;;;;;;;9.93;2.23;;;10.20;99.90;;;;;;5055898;28;20524;-56
2023/03/26 04:00:00;;;;;;;12.77;2.53;;;10.20;99.90;;;;;;5055847;28;20481;-56
2023/03/26 04:02:29;;;;;;;19.70;3.03;;;10.20;99.90;;;;;;5055697;28;20449;-56
2023/03/26 04:04:56;;;;;;;10.87;2.70;;;10.20;99.90;;;;;;5055739;28;20457;-57
2023/03/26 04:07:23;;;;;;;15.30;2.70;;;10.20;99.90;;;;;;5055768;28;20486;-56
2023/03/26 04:09:50;;;;;;;14.00;3.97;;;10.20;99.90;;;;;;5055361;28;20815;-56
2023/03/26 04:12:19;;;;;;;12.97;4.23;;;10.20;99.90;;;;;;5055266;28;20972;-57
2023/03/26 04:14:45;;;;;;;10.73;2.73;;;10.20;99.90;;;;;;5055134;28;20875;-57
2023/03/26 04:17:14;;;;;;;9.47;2.50;;;10.20;99.90;;;;;;5055079;28;21026;-57
2023/03/26 04:19:42;;;;;;;9.77;2.33;;;10.20;99.90;;;;;;5055956;28;20485;-56
2023/03/26 04:22:10;;;;;;;8.23;2.40;;;10.20;99.90;;;;;;5055372;28;20449;-56
2023/03/26 04:24:39;;;;;;;9.07;2.47;;;10.20;99.90;;;;;;5055377;28;20445;-56
2023/03/26 04:27:07;;;;;;;13.37;3.20;;;10.20;99.90;;;;;;5055332;28;20571;-56
2023/03/26 04:29:41;;;;;;;9.37;3.03;;;10.20;99.90;;;;;;5055243;28;20449;-56
2023/03/26 04:32:11;;;;;;;12.13;2.60;;;10.20;99.90;;;;;;5055285;28;20430;-56
2023/03/26 04:34:38;;;;;;;6.73;2.50;;;10.20;99.90;;;;;;5054960;28;20453;-56
2023/03/26 04:37:05;;;;;;;10.67;4.07;;;10.20;99.90;;;;;;5054931;28;20531;-56
2023/03/26 04:39:32;;;;;;;8.47;3.23;;;10.20;99.90;;;;;;5054754;28;20487;-56
2023/03/26 04:42:00;;;;;;;7.83;2.77;;;10.20;99.90;;;;;;5055022;28;20453;-56
2023/03/26 04:44:29;;;;;;;10.07;3.07;;;10.20;99.90;;;;;;5054573;28;21075;-57
2023/03/26 04:46:57;;;;;;;8.90;2.00;;;10.20;99.90;;;;;;5054928;28;20449;-57
2023/03/26 04:49:24;;;;;;;8.63;3.40;;;10.20;99.90;;;;;;5054883;28;20795;-56
2023/03/26 04:51:50;;;;;;;9.83;2.97;;;10.20;99.90;;;;;;5054851;28;20453;-57
2023/03/26 04:54:20;;;;;;;10.97;2.53;;;10.10;99.90;;;;;;5054699;28;20473;-57
2023/03/26 04:56:53;;;;;;;8.57;2.00;;;10.10;99.90;;;;;;5053753;28;20486;-57
2023/03/26 04:59:24;;;;;;;9.57;2.27;;;10.00;99.90;;;;;;5054732;28;20437;-57
2023/03/26 05:01:51;;;;;;;10.57;2.77;;;10.00;99.90;;;;;;5054331;28;20922;-57
2023/03/26 05:04:19;;;;;;;16.37;2.70;;;10.00;99.90;;;;;;5054164;28;20837;-57
2023/03/26 05:06:46;;;;;;;7.40;2.30;;;10.00;99.90;;;;;;5054418;28;20438;-57
2023/03/26 05:09:13;;;;;;;14.73;3.87;;;9.90;99.90;;;;;;5055316;28;20511;-57
2023/03/26 05:11:40;;;;;;;8.80;2.63;;;9.90;99.90;;;;;;5054449;28;20821;-57
2023/03/26 05:14:07;;;;;;;11.37;2.90;;;9.90;99.90;;;;;;5054274;28;20481;-57
2023/03/26 05:16:34;;;;;;;11.83;3.23;;;9.80;99.90;;;;;;5054382;28;20539;-57
2023/03/26 05:19:01;;;;;;;12.60;2.80;;;9.80;99.90;;;;;;5054390;28;20452;-56
2023/03/26 05:21:29;;;;;;;11.60;2.30;;;9.70;99.90;;;;;;5054224;28;20456;-56
2023/03/26 05:23:56;;;;;;;8.30;2.53;;;9.80;99.90;;;;;;5054233;28;20472;-56
2023/03/26 05:26:22;;;;;;;10.50;2.60;;;9.70;99.90;;;;;;5053842;28;20943;-56
2023/03/26 05:28:49;;;;;;;7.10;2.40;;;9.70;99.90;;;;;;5054198;28;20445;-56
2023/03/26 05:31:19;;;;;;;10.23;2.63;;;9.70;99.90;;;;;;5054022;28;20445;-56
2023/03/26 05:33:47;;;;;;;10.90;2.63;;;9.70;99.90;;;;;;5053692;28;20477;-56
2023/03/26 05:36:15;;;;;;;8.93;2.53;;;9.60;99.90;;;;;;5053820;28;20489;-56
2023/03/26 05:38:46;;;;;;;10.10;2.50;;;9.60;99.90;;;;;;5053657;28;20465;-56
2023/03/26 05:41:13;;;;;;;11.20;2.77;;;9.60;99.90;;;;;;5053975;28;20438;-56
2023/03/26 05:43:39;;;;;;;7.30;2.60;;;9.60;99.90;;;;;;5053752;28;20580;-56
2023/03/26 05:46:08;;;;;;;16.40;3.03;;;9.60;99.90;;;;;;5053577;28;20935;-56
2023/03/26 05:48:35;;;;;;;10.67;2.33;;;9.70;99.90;;;;;;5053890;28;20471;-56
2023/03/26 05:51:01;;;;;;;8.83;3.40;;;9.70;99.90;;;;;;5053961;28;20503;-57
2023/03/26 05:53:28;;;;;;;8.20;2.80;;;9.70;99.90;;;;;;5053503;28;20539;-57
2023/03/26 05:55:57;;;;;;;9.03;2.60;;;9.70;99.90;;;;;;5053314;28;20476;-56
2023/03/26 05:58:25;;;;;;;10.90;3.27;;;9.70;99.90;;;;;;5053435;28;20959;-56
2023/03/26 06:00:57;;;;;;;12.53;2.83;;;9.70;99.90;;;;;;5053491;28;20947;-56
2023/03/26 06:03:24;;;;;;;7.33;1.90;;;9.80;99.90;;;;;;5053611;28;20465;-56
2023/03/26 06:05:51;;;;;;;9.50;2.00;;;9.80;99.90;;;;;;5053493;28;20530;-56
2023/03/26 06:08:18;;;;;;;10.90;3.10;;;9.90;99.90;;;;;;5053494;28;20446;-56
2023/03/26 06:10:45;;;;;;;9.10;2.60;;;9.90;99.90;;;;;;5053463;28;20453;-56
2023/03/26 06:13:15;;;;;;;5.33;2.23;;;9.90;99.90;;;;;;5053423;28;20461;-55
2023/03/26 06:15:41;;;;;;;7.33;3.30;;;10.00;99.90;;;;;;5053968;28;20537;-56
2023/03/26 06:18:08;;;;;;;6.43;2.30;;;10.00;99.90;;;;;;5053362;28;20492;-55
2023/03/26 06:20:36;;;;;;;8.30;3.00;;;10.10;99.90;;;;;;5053447;28;20527;-55
2023/03/26 06:23:03;;;;;;;8.73;2.80;;;10.10;99.90;;;;;;5055339;28;20477;-56
2023/03/26 06:25:29;;;;;;;11.07;2.50;;;10.20;99.90;;;;;;5063178;28;20455;-56
2023/03/26 06:27:56;;;;;;;6.70;2.23;;;10.20;99.90;;;;;;5053211;28;20441;-55
2023/03/26 06:30:24;;;;;;;9.17;2.40;;;10.20;99.90;;;;;;5053194;28;20461;-56
2023/03/26 06:32:51;;;;;;;7.27;2.10;;;10.30;99.90;;;;;;5052764;28;20469;-55
2023/03/26 06:35:18;;;;;;;15.60;4.77;;;10.30;99.90;;;;;;5052960;28;20966;-56
2023/03/26 06:37:44;;;;;;;7.20;2.57;;;10.30;99.90;;;;;;5053184;28;20485;-56
2023/03/26 06:40:12;;;;;;;10.50;3.20;;;10.40;99.90;;;;;;5052732;28;20453;-56
2023/03/26 06:42:38;;;;;;;11.43;3.57;;;10.40;99.90;;;;;;5052967;28;20473;-56
2023/03/26 06:45:06;;;;;;;7.97;3.10;;;10.40;99.90;;;;;;5052804;28;20456;-56
2023/03/26 06:47:34;;;;;;;9.07;3.40;;;10.50;99.90;;;;;;5054070;28;20488;-56
2023/03/26 06:50:01;;;;;;;7.73;3.47;;;10.50;99.90;;;;;;5053239;28;20814;-56
2023/03/26 06:52:28;;;;;;;9.33;4.13;;;10.50;99.90;;;;;;5053521;28;20454;-56
2023/03/26 06:54:55;;;;;;;8.43;3.27;;;10.50;99.90;;;;;;5052682;28;20975;-56
2023/03/26 06:57:21;;;;;;;7.73;2.50;;;10.60;99.90;;;;;;5052898;28;20493;-56
2023/03/26 06:59:48;;;;;;;7.60;2.70;;;10.60;99.90;;;;;;5052717;28;20460;-56
2023/03/26 07:02:15;;;;;;;7.00;2.40;;;10.60;99.90;;;;;;5052855;28;20449;-56
2023/03/26 07:04:43;;;;;;;9.50;2.30;;;10.50;99.90;;;;;;5052639;28;20956;-56
2023/03/26 07:07:10;;;;;;;7.57;2.07;;;10.50;99.90;;;;;;5052855;28;20450;-55
2023/03/26 07:09:37;;;;;;;6.97;2.40;;;10.50;99.90;;;;;;5052556;28;20960;-56
2023/03/26 07:12:04;;;;;;;6.37;2.80;;;10.60;99.90;;;;;;5052854;28;20458;-55
2023/03/26 07:14:31;;;;;;;6.50;2.50;;;10.50;99.90;;;;;;5052842;28;20469;-55
2023/03/26 07:16:58;;;;;;;6.23;2.70;;;10.60;99.90;;;;;;5052516;28;20512;-56
2023/03/26 07:19:25;;;;;;;6.53;3.13;;;10.60;99.90;;;;;;5052548;28;20936;-55
2023/03/26 07:21:54;;;;;;;5.27;3.70;;;10.70;99.90;;;;;;5056257;28;20835;-55
2023/03/26 07:24:21;;;;;;;10.40;3.60;;;10.70;99.90;;;;;;5056212;28;20474;-55
2023/03/26 07:26:54;;;;;;;7.97;3.33;;;10.70;99.90;;;;;;5056471;28;20472;-55
2023/03/26 07:29:32;;;;;;;8.53;2.80;;;10.70;99.90;;;;;;5056459;28;20430;-55
2023/03/26 07:32:06;;;;;;;13.07;2.57;;;10.70;99.90;;;;;;5056429;28;20433;-55
2023/03/26 07:34:41;;;;;;;9.30;2.70;;;10.70;99.90;;;;;;5056296;28;20522;-55
2023/03/26 07:37:18;;;;;;;8.10;3.00;;;10.70;99.90;;;;;;5056213;28;20461;-55
2023/03/26 07:39:52;;;;;;;6.50;2.97;;;10.80;99.90;;;;;;5055931;28;20457;-55
2023/03/26 07:42:36;;;;;;;5.03;2.70;;;10.80;99.90;;;;;;5055820;28;20966;-56
2023/03/26 07:45:12;;;;;;;7.03;2.83;;;10.80;99.90;;;;;;5056068;28;20479;-56
2023/03/26 07:47:41;;;;;;;6.83;3.17;;;10.80;99.90;;;;;;5056040;28;20425;-55
2023/03/26 07:50:15;;;;;;;6.87;3.47;;;10.80;99.90;;;;;;5055756;28;20449;-55
2023/03/26 07:52:44;;;;;;;5.83;3.20;;;10.80;99.90;;;;;;5056021;28;20552;-56
2023/03/26 07:55:13;;;;;;;11.10;4.50;;;10.90;99.90;;;;;;5055944;28;20437;-56
2023/03/26 07:57:49;;;;;;;8.43;4.17;;;10.90;99.90;;;;;;5055860;28;20481;-55
2023/03/26 08:00:20;;;;;;;8.63;3.87;;;10.90;99.90;;;;;;5055910;28;20421;-55
2023/03/26 08:03:13;;;;;;;6.07;3.70;;;10.90;99.90;;;;;;5055734;28;20481;-56
2023/03/26 08:05:47;;;;;;;10.37;3.90;;;10.90;99.90;;;;;;5055751;28;20442;-55
2023/03/26 08:08:22;;;;;;;8.43;3.83;;;11.00;99.90;;;;;;5057583;28;20437;-56
2023/03/26 08:11:03;;;;;;;10.57;4.40;;;11.00;99.90;;;;;;5055356;28;20437;-56
2023/03/26 08:13:38;;;;;;;8.97;3.80;;;11.00;99.90;;;;;;5055695;28;20476;-55
2023/03/26 08:16:11;;;;;;;10.40;3.60;;;11.00;99.90;;;;;;5055584;28;20433;-55
2023/03/26 08:18:46;;;;;;;9.20;4.30;;;11.00;99.90;;;;;;5055391;28;20524;-55
2023/03/26 08:21:16;;;;;;;11.13;4.63;;;11.00;99.90;;;;;;5055554;28;20444;-55
2023/03/26 08:23:54;;;;;;;8.53;4.13;;;11.00;99.90;;;;;;5055374;28;20543;-55
2023/03/26 08:26:31;;;;;;;12.73;4.13;;;11.00;99.90;;;;;;5055374;28;20433;-55
2023/03/26 08:29:06;;;;;;;15.03;4.17;;;11.00;99.90;;;;;;5055398;28;20434;-55
2023/03/26 08:31:34;;;;;;;13.10;4.30;;;11.00;99.90;;;;;;5054301;28;20447;-55
2023/03/26 08:34:01;;;;;;;10.67;3.80;;;11.00;99.90;;;;;;5054928;28;20466;-55
2023/03/26 08:36:28;;;;;;;4.67;2.90;;;10.90;99.90;;;;;;5055201;28;20461;-55
2023/03/26 08:38:58;;;;;;;11.27;4.87;;;10.90;99.90;;;;;;5054862;28;20496;-55
2023/03/26 08:41:59;;;;;;;6.30;2.93;;;10.80;99.90;;;;;;5055281;28;20457;-55
2023/03/26 08:45:07;;;;;;;5.60;2.70;;;10.70;99.90;;;;;;5054952;28;20485;-56
2023/03/26 08:48:13;;;;;;;6.60;2.67;;;10.70;99.90;;;;;;5055171;28;20437;-55
2023/03/26 08:51:13;;;;;;;8.70;3.53;;;10.60;99.90;;;;;;5055007;28;20429;-56
2023/03/26 08:54:11;;;;;;;9.50;3.00;;;10.50;99.90;;;;;;5043667;28;20540;-56
2023/03/26 08:56:51;;;;;;;5.87;2.00;;;10.40;99.90;;;;;;5054970;28;20426;-56
2023/03/26 08:59:46;;;;;;;12.87;3.30;;;10.40;99.90;;;;;;5054791;28;20441;-56
2023/03/26 09:02:45;;;;;;;3.97;2.97;;;10.40;99.90;;;;;;5054484;28;20453;-56
2023/03/26 09:05:50;;;;;;;6.80;3.40;;;10.40;99.90;;;;;;5054167;28;20434;-56
2023/03/26 09:08:59;;;;;;;5.23;2.70;;;10.50;99.90;;;;;;5054677;28;20480;-56
2023/03/26 09:11:54;;;;;;;3.77;2.13;;;10.50;99.90;;;;;;5012621;28;20451;-56
2023/03/26 09:14:57;;;;;;;4.60;2.30;;;10.60;99.90;;;;;;5012372;28;20475;-56
2023/03/26 09:17:59;;;;;;;4.07;2.60;;;10.60;99.90;;;;;;5009365;28;20481;-56
2023/03/26 09:21:03;;;;;;;3.90;2.73;;;10.60;99.90;;;;;;5052468;28;20461;-56
2023/03/26 09:23:56;;;;;;;11.87;3.40;;;10.70;99.90;;;;;;5036840;28;20461;-55
2023/03/26 09:26:30;;;;;;;10.87;3.40;;;10.70;99.90;;;;;;5054242;28;20471;-56
2023/03/26 09:29:38;;;;;;;5.27;2.77;;;10.70;99.90;;;;;;5054456;28;20429;-55
2023/03/26 09:32:35;;;;;;;5.87;2.37;;;10.80;99.90;;;;;;5053803;28;20446;-56
2023/03/26 09:35:13;;;;;;;4.80;2.13;;;10.80;99.90;;;;;;5054034;28;20426;-56
2023/03/26 09:37:56;;;;;;;6.27;2.50;;;10.80;99.90;;;;;;5054006;28;20476;-56
2023/03/26 09:40:31;;;;;;;5.93;2.00;;;10.80;99.90;;;;;;5053996;28;20532;-56
2023/03/26 09:43:27;;;;;;;5.27;2.10;;;10.80;99.90;;;;;;5053574;28;20457;-56
2023/03/26 09:46:11;;;;;;;11.80;2.80;;;10.90;99.90;;;;;;5053896;28;20797;-56
2023/03/26 09:48:57;;;;;;;6.40;2.63;;;10.90;99.90;;;;;;5053415;28;20946;-56
2023/03/26 09:51:51;;;;;;;4.73;2.10;;;10.90;99.90;;;;;;5053794;28;20426;-56
2023/03/26 09:54:56;;;;;;;2.73;1.70;;;10.90;99.90;;;;;;5053684;28;20465;-56
2023/03/26 09:57:48;;;;;;;6.43;2.30;;;10.80;99.90;;;;;;5047122;28;20481;-56
2023/03/26 10:00:24;;;;;;;6.37;2.40;;;10.80;99.90;;;;;;5053618;28;20530;-56
2023/03/26 10:03:08;;;;;;;10.10;3.03;;;10.90;99.90;;;;;;5053645;28;20516;-56
2023/03/26 10:05:55;;;;;;;5.60;2.03;;;11.00;99.90;;;;;;5053538;28;20476;-56
2023/03/26 10:08:43;;;;;;;4.70;2.17;;;11.00;99.90;;;;;;5053621;28;20426;-56
2023/03/26 10:11:19;;;;;;;4.50;2.27;;;11.10;99.90;;;;;;5053599;28;20442;-56
2023/03/26 10:13:58;;;;;;;5.63;2.20;;;11.20;99.90;;;;;;5053324;28;20805;-56
2023/03/26 10:16:32;;;;;;;7.47;2.30;;;11.30;99.90;;;;;;5053225;28;20966;-56
2023/03/26 10:19:23;;;;;;;9.53;2.70;;;11.30;99.90;;;;;;5053344;28;20884;-56
2023/03/26 10:22:00;;;;;;;7.63;2.37;;;11.40;99.90;;;;;;5051367;28;20962;-56
2023/03/26 10:25:01;;;;;;;2.73;1.67;;;11.50;99.90;;;;;;5053204;28;20480;-56
2023/03/26 10:27:39;;;;;;;3.67;1.30;;;11.50;99.90;;;;;;5053483;28;20433;-56
2023/03/26 10:30:42;;;;;;;4.80;1.20;;;11.60;99.90;;;;;;5053287;28;20430;-56
2023/03/26 10:33:17;;;;;;;2.83;1.43;;;11.70;99.90;;;;;;5031056;28;20473;-57
2023/03/26 10:35:56;;;;;;;2.07;1.43;;;11.70;99.90;;;;;;5052975;28;20437;-56
2023/03/26 10:38:35;;;;;;;3.67;1.40;;;11.80;99.90;;;;;;5052970;28;20492;-56
2023/03/26 10:41:08;;;;;;;2.33;1.20;;;11.90;99.90;;;;;;5052821;28;21020;-56
2023/03/26 10:44:09;;;;;;;3.73;1.60;;;12.00;99.90;;;;;;5052899;28;20975;-56
2023/03/26 10:47:05;;;;;;;1.97;1.30;;;12.20;99.90;;;;;;5053209;28;20471;-56
2023/03/26 10:50:20;;;;;;;3.50;1.47;;;12.30;99.90;;;;;;5054093;28;20836;-56
2023/03/26 10:52:54;;;;;;;1.70;1.30;;;12.40;99.90;;;;;;5053151;28;20888;-57
2023/03/26 10:55:25;;;;;;;3.77;1.57;;;12.50;99.90;;;;;;5054133;28;20441;-57
2023/03/26 10:57:55;;;;;;;2.10;1.10;;;12.60;99.90;;;;;;5056803;28;20979;-57
2023/03/26 11:00:24;;;;;;;3.20;1.60;;;12.60;99.90;;;;;;5057099;28;20453;-57
2023/03/26 11:03:11;;;;;;;4.43;1.50;;;12.70;99.90;;;;;;5057046;28;20495;-57
2023/03/26 11:05:47;;;;;;;4.57;1.63;;;12.70;99.90;;;;;;5056965;28;20438;-57
2023/03/26 11:08:23;;;;;;;3.80;1.80;;;12.70;99.90;;;;;;5056721;28;20433;-57
2023/03/26 11:10:56;;;;;;;3.67;1.57;;;12.70;99.90;;;;;;5057648;28;20449;-57
2023/03/26 11:13:34;;;;;;;2.60;1.30;;;12.70;99.90;;;;;;5056519;28;20983;-57
2023/03/26 11:16:04;;;;;;;1.93;1.30;;;12.70;99.80;;;;;;5056506;28;20515;-57
2023/03/26 11:18:39;;;;;;;2.10;1.63;;;12.70;99.70;;;;;;5056412;28;20487;-57
2023/03/26 11:21:11;;;;;;;5.17;1.70;;;12.60;99.70;;;;;;5056847;28;20437;-57
2023/03/26 11:23:47;;;;;;;1.77;1.40;;;12.60;99.80;;;;;;5056840;28;20469;-57
2023/03/26 11:26:16;;;;;;;5.30;2.10;;;12.70;99.90;;;;;;5056725;28;20425;-57
2023/03/26 11:29:06;;;;;;;2.23;1.43;;;12.70;99.90;;;;;;5056849;28;20452;-56
2023/03/26 11:31:48;;;;;;;3.50;1.47;;;12.90;99.90;;;;;;5056891;28;20469;-57
2023/03/26 11:34:18;;;;;;;1.47;1.30;;;13.00;99.90;;;;;;5056882;28;20473;-57
2023/03/26 11:36:50;;;;;;;3.33;2.00;;;13.10;99.70;;;;;;5058382;28;20440;-57
2023/03/26 11:39:23;;;;;;;3.43;1.70;;;13.20;99.50;;;;;;5057841;28;20489;-56
2023/03/26 11:41:52;;;;;;;3.13;1.30;;;13.30;99.20;;;;;;5059335;28;20437;-57
2023/03/26 11:44:22;;;;;;;2.70;1.60;;;13.30;98.80;;;;;;5056646;28;20469;-57
2023/03/26 11:46:52;;;;;;;2.93;1.63;;;13.30;98.60;;;;;;5057272;28;20449;-57
2023/03/26 11:49:21;;;;;;;4.40;1.83;;;13.20;98.60;;;;;;5056574;28;20433;-57
2023/03/26 11:51:48;;;;;;;4.53;1.60;;;13.20;98.70;;;;;;5056287;28;20450;-57
2023/03/26 11:54:16;;;;;;;3.53;1.40;;;13.20;98.60;;;;;;5066883;28;20563;-56
2023/03/26 11:56:48;;;;;;;4.37;1.93;;;13.30;99.00;;;;;;5076442;28;20453;-56
2023/03/26 11:59:18;;;;;;;4.00;1.30;;;13.30;98.70;;;;;;5076084;28;20507;-56
2023/03/26 12:01:50;;;;;;;1.33;1.13;;;13.40;98.70;;;;;;5076003;28;20459;-56
2023/03/26 12:04:18;;;;;;;3.83;1.67;;;13.40;98.70;;;;;;5075950;28;20476;-57
2023/03/26 12:06:55;;;;;;;2.60;1.20;;;13.50;98.50;;;;;;5075714;28;20449;-57
2023/03/26 12:09:22;;;;;;;2.40;1.33;;;13.50;98.40;;;;;;5075564;28;20779;-57
2023/03/26 12:11:54;;;;;;;2.43;1.30;;;13.50;98.20;;;;;;5075608;28;20453;-57
2023/03/26 12:14:23;;;;;;;1.63;1.23;;;13.50;98.10;;;;;;5076204;28;20511;-57
2023/03/26 12:17:01;;;;;;;3.10;1.80;;;13.60;98.10;;;;;;5075111;28;20448;-57
2023/03/26 12:19:35;;;;;;;1.33;1.23;;;13.70;98.20;;;;;;5075632;28;20484;-57
2023/03/26 12:22:02;;;;;;;2.10;1.10;;;13.70;97.80;;;;;;5075631;28;20429;-57
2023/03/26 12:24:30;;;;;;;1.23;1.13;;;13.80;97.90;;;;;;5075499;28;20986;-57
2023/03/26 12:27:01;;;;;;;2.80;1.30;;;13.90;97.90;;;;;;5075469;28;20451;-57
2023/03/26 12:29:32;;;;;;;2.23;1.20;;;14.00;97.70;;;;;;5075508;28;20467;-57
2023/03/26 12:32:05;;;;;;;2.13;1.40;;;14.20;97.40;;;;;;5075947;28;20787;-57
2023/03/26 12:34:34;;;;;;;4.20;1.40;;;14.10;96.80;;;;;;5074894;28;20974;-57
2023/03/26 12:37:02;;;;;;;1.20;1.10;;;14.00;96.10;;;;;;5075211;28;20452;-57
2023/03/26 12:39:36;;;;;;;2.50;1.43;;;13.90;96.90;;;;;;5074658;28;21005;-57
2023/03/26 12:42:06;;;;;;;2.90;1.40;;;14.00;96.70;;;;;;5074988;28;20512;-57
2023/03/26 12:44:36;;;;;;;2.13;2.00;;;14.00;96.60;;;;;;5075110;28;20468;-57
2023/03/26 12:47:14;;;;;;;3.87;1.90;;;14.10;96.60;;;;;;5074632;28;20483;-58
2023/03/26 12:49:42;;;;;;;1.93;1.70;;;14.10;96.50;;;;;;5074685;28;20980;-58
2023/03/26 12:52:26;;;;;;;2.43;1.30;;;14.10;96.20;;;;;;5074686;28;20823;-57
2023/03/26 12:55:01;;;;;;;2.90;1.50;;;14.10;96.20;;;;;;5074876;28;20440;-57
2023/03/26 12:57:37;;;;;;;2.20;1.60;;;14.10;96.00;;;;;;5074501;28;20436;-58
2023/03/26 13:00:20;;;;;;;2.50;1.67;;;14.00;96.10;;;;;;5074191;28;20468;-57
2023/03/26 13:03:01;;;;;;;3.70;1.63;;;14.00;96.10;;;;;;5074147;28;20468;-57
2023/03/26 13:05:45;;;;;;;4.30;1.50;;;14.00;96.20;;;;;;5074357;28;20906;-58
2023/03/26 13:08:43;;;;;;;2.73;1.50;;;14.00;96.20;;;;;;5074637;28;20439;-57
2023/03/26 13:11:20;;;;;;;1.80;1.70;;;14.00;96.20;;;;;;5074579;28;20433;-58
2023/03/26 13:14:01;;;;;;;4.50;2.00;;;14.00;96.30;;;;;;5073959;28;21099;-57